createdAt,value
2017-10-24T00:00:36.948Z,33.50
2017-10-24T00:03:05.265Z,33.40
2017-10-24T00:05:33.564Z,31.40
2017-10-24T00:08:01.865Z,33.93
2017-10-24T00:10:30.194Z,33.27
2017-10-24T00:12:58.505Z,39.60
2017-10-24T00:15:26.822Z,35.40
2017-10-24T00:17:55.893Z,43.93
2017-10-24T00:20:24.196Z,32.17
2017-10-24T00:22:53.272Z,37.87
2017-10-24T00:25:21.588Z,33.97
2017-10-24T00:27:49.899Z,35.53
2017-10-24T00:30:18.213Z,31.07
2017-10-24T00:32:47.290Z,33.20
2017-10-24T00:35:15.641Z,32.83
2017-10-24T00:37:43.941Z,33.27
2017-10-24T00:40:12.249Z,37.87
2017-10-24T00:42:41.334Z,31.80
2017-10-24T00:45:10.416Z,36.97
2017-10-24T00:47:38.734Z,30.87
2017-10-24T00:50:07.045Z,33.17
2017-10-24T00:52:35.408Z,36.90
2017-10-24T00:55:03.720Z,36.73
2017-10-24T00:57:32.030Z,33.13
2017-10-24T01:00:01.114Z,28.03
2017-10-24T01:02:30.190Z,32.13
2017-10-24T01:04:58.513Z,28.27
2017-10-24T01:07:26.818Z,30.63
2017-10-24T01:09:55.134Z,30.03
2017-10-24T01:12:23.442Z,37.23
2017-10-24T01:14:51.758Z,35.30
2017-10-24T01:17:20.118Z,33.77
2017-10-24T01:19:48.445Z,36.70
2017-10-24T01:22:16.744Z,31.07
2017-10-24T01:24:45.827Z,30.40
2017-10-24T01:27:14.957Z,31.63
2017-10-24T01:29:43.265Z,29.83
2017-10-24T01:32:11.581Z,36.10
2017-10-24T01:34:40.665Z,32.40
2017-10-24T01:37:08.986Z,40.60
2017-10-24T01:39:37.290Z,34.93
2017-10-24T01:42:05.605Z,32.70
2017-10-24T01:44:34.725Z,32.63
2017-10-24T01:47:03.037Z,35.33
2017-10-24T01:49:31.337Z,37.87
2017-10-24T01:51:59.649Z,30.27
2017-10-24T01:54:28.709Z,36.70
2017-10-24T01:56:57.018Z,31.47
2017-10-24T01:59:25.323Z,27.43
2017-10-24T02:01:53.633Z,26.77
2017-10-24T02:04:22.094Z,24.53
2017-10-24T02:06:50.426Z,26.10
2017-10-24T02:09:19.500Z,26.60
2017-10-24T02:11:47.819Z,25.97
2017-10-24T02:14:16.146Z,25.63
2017-10-24T02:16:44.485Z,24.23
2017-10-24T02:19:12.807Z,31.53
2017-10-24T02:21:41.911Z,27.70
2017-10-24T02:24:10.223Z,24.10
2017-10-24T02:26:38.546Z,31.37
2017-10-24T02:29:06.854Z,25.77
2017-10-24T02:31:35.939Z,24.13
2017-10-24T02:34:05.081Z,23.73
2017-10-24T02:36:33.394Z,24.60
2017-10-24T02:39:01.701Z,24.90
2017-10-24T02:41:30.783Z,23.27
2017-10-24T02:43:59.866Z,24.80
2017-10-24T02:46:28.200Z,26.97
2017-10-24T02:48:56.502Z,23.70
2017-10-24T02:51:24.821Z,22.50
2017-10-24T02:53:53.899Z,28.70
2017-10-24T02:56:22.224Z,21.50
2017-10-24T02:58:50.548Z,25.67
2017-10-24T03:01:18.866Z,30.13
2017-10-24T03:03:47.186Z,23.50
2017-10-24T03:06:15.500Z,26.77
2017-10-24T03:08:44.594Z,23.00
2017-10-24T03:11:13.685Z,29.40
2017-10-24T03:13:42.110Z,25.53
2017-10-24T03:16:10.421Z,23.00
2017-10-24T03:18:38.727Z,28.03
2017-10-24T03:21:07.818Z,22.50
2017-10-24T03:23:36.893Z,21.37
2017-10-24T03:26:05.210Z,26.77
2017-10-24T03:28:34.282Z,27.93
2017-10-24T03:31:02.630Z,22.00
2017-10-24T03:33:30.937Z,26.63
2017-10-24T03:35:59.247Z,24.73
2017-10-24T03:38:27.566Z,28.60
2017-10-24T03:40:55.901Z,23.43
2017-10-24T03:43:24.222Z,25.97
2017-10-24T03:45:52.542Z,26.17
2017-10-24T03:48:21.634Z,25.17
2017-10-24T03:50:50.720Z,26.83
2017-10-24T03:53:19.807Z,24.70
2017-10-24T03:55:48.118Z,25.43
2017-10-24T03:58:16.444Z,25.10
2017-10-24T04:00:44.770Z,29.80
2017-10-24T04:03:13.086Z,27.43
2017-10-24T04:05:41.401Z,25.13
2017-10-24T04:08:09.714Z,32.53
2017-10-24T04:10:38.077Z,27.13
2017-10-24T04:13:06.402Z,24.83
2017-10-24T04:15:34.728Z,27.37
2017-10-24T04:18:03.818Z,30.83
2017-10-24T04:20:32.910Z,30.23
2017-10-24T04:23:01.993Z,27.17
2017-10-24T04:25:30.304Z,28.83
2017-10-24T04:27:58.633Z,32.87
2017-10-24T04:30:26.956Z,33.13
2017-10-24T04:32:55.283Z,33.57
2017-10-24T04:35:23.607Z,28.40
2017-10-24T04:37:51.940Z,27.47
2017-10-24T04:40:20.268Z,19.73
2017-10-24T04:42:48.595Z,23.10
2017-10-24T04:45:16.918Z,23.07
2017-10-24T04:47:45.261Z,20.57
2017-10-24T04:50:13.566Z,18.67
2017-10-24T04:52:44.126Z,23.53
2017-10-24T04:55:12.441Z,18.27
2017-10-24T04:57:40.773Z,23.93
2017-10-24T05:00:09.096Z,18.60
2017-10-24T05:02:37.404Z,17.87
2017-10-24T05:05:06.487Z,17.30
2017-10-24T05:07:35.573Z,19.20
2017-10-24T05:10:03.890Z,16.60
2017-10-24T05:12:32.197Z,18.33
2017-10-24T05:15:00.524Z,17.23
2017-10-24T05:17:29.602Z,25.27
2017-10-24T05:19:57.928Z,20.07
2017-10-24T05:22:26.252Z,19.13
2017-10-24T05:24:54.569Z,18.27
2017-10-24T05:27:22.878Z,26.13
2017-10-24T05:29:51.190Z,21.93
2017-10-24T05:32:19.498Z,23.10
2017-10-24T05:34:47.810Z,17.03
2017-10-24T05:37:16.115Z,17.67
2017-10-24T05:39:44.435Z,25.57
2017-10-24T05:42:12.734Z,17.53
2017-10-24T05:44:41.049Z,19.47
2017-10-24T05:47:09.358Z,18.27
2017-10-24T05:49:37.674Z,16.40
2017-10-24T05:52:05.996Z,23.20
2017-10-24T05:54:35.082Z,18.53
2017-10-24T05:57:03.385Z,23.30
2017-10-24T05:59:31.715Z,21.67
2017-10-24T06:02:00.024Z,25.17
2017-10-24T06:04:29.114Z,18.90
2017-10-24T06:06:58.182Z,20.23
2017-10-24T06:09:26.506Z,22.20
2017-10-24T06:11:55.573Z,20.37
2017-10-24T06:14:23.886Z,27.47
2017-10-24T06:16:52.202Z,20.60
2017-10-24T06:19:20.518Z,20.27
2017-10-24T06:21:49.834Z,20.20
2017-10-24T06:24:18.918Z,22.90
2017-10-24T06:26:47.993Z,17.00
2017-10-24T06:29:16.305Z,21.40
2017-10-24T06:31:44.620Z,23.53
2017-10-24T06:34:12.966Z,20.70
2017-10-24T06:36:41.278Z,19.77
2017-10-24T06:39:09.597Z,17.77
2017-10-24T06:41:38.681Z,24.97
2017-10-24T06:44:07.022Z,19.03
2017-10-24T06:46:35.337Z,21.00
2017-10-24T06:49:03.654Z,29.80
2017-10-24T06:51:31.957Z,20.17
2017-10-24T06:54:00.289Z,16.80
2017-10-24T06:56:29.360Z,18.47
2017-10-24T06:58:57.675Z,15.10
2017-10-24T07:01:26.003Z,16.43
2017-10-24T07:03:54.318Z,28.70
2017-10-24T07:06:22.643Z,20.17
2017-10-24T07:08:50.950Z,25.60
2017-10-24T07:11:19.262Z,16.67
2017-10-24T07:13:47.572Z,15.40
2017-10-24T07:16:15.896Z,15.97
2017-10-24T07:18:44.970Z,17.80
2017-10-24T07:21:13.284Z,15.60
2017-10-24T07:23:41.590Z,16.13
2017-10-24T07:26:09.922Z,19.00
2017-10-24T07:28:38.998Z,25.43
2017-10-24T07:31:07.315Z,18.20
2017-10-24T07:33:35.615Z,15.40
2017-10-24T07:36:03.934Z,21.07
2017-10-24T07:38:32.240Z,19.00
2017-10-24T07:41:00.614Z,17.90
2017-10-24T07:43:29.682Z,21.47
2017-10-24T07:45:58.003Z,24.67
2017-10-24T07:48:26.318Z,17.63
2017-10-24T07:50:54.635Z,26.57
2017-10-24T07:53:23.711Z,17.67
2017-10-24T07:55:52.029Z,28.13
2017-10-24T07:58:20.348Z,19.27
2017-10-24T08:00:48.686Z,21.60
2017-10-24T08:03:16.998Z,21.97
2017-10-24T08:05:45.404Z,24.77
2017-10-24T08:08:13.718Z,26.97
2017-10-24T08:10:42.041Z,19.63
2017-10-24T08:13:10.358Z,18.80
2017-10-24T08:15:39.450Z,21.80
2017-10-24T08:18:08.527Z,20.43
2017-10-24T08:20:36.885Z,21.10
2017-10-24T08:23:05.213Z,22.73
2017-10-24T08:25:33.521Z,25.03
2017-10-24T08:28:02.602Z,22.20
2017-10-24T08:30:30.937Z,18.13
2017-10-24T08:32:59.246Z,19.83
2017-10-24T08:35:27.558Z,20.57
2017-10-24T08:37:55.886Z,20.83
2017-10-24T08:40:24.965Z,20.07
2017-10-24T08:42:54.053Z,16.43
2017-10-24T08:45:22.357Z,21.17
2017-10-24T08:47:50.674Z,20.00
2017-10-24T08:50:18.977Z,15.00
2017-10-24T08:52:47.309Z,14.70
2017-10-24T08:55:15.616Z,19.77
2017-10-24T08:57:43.937Z,17.00
2017-10-24T09:00:13.017Z,17.03
2017-10-24T09:02:41.330Z,18.70
2017-10-24T09:05:09.642Z,18.70
2017-10-24T09:07:37.958Z,17.00
2017-10-24T09:10:07.030Z,27.30
2017-10-24T09:12:40.883Z,19.83
2017-10-24T09:15:40.622Z,29.90
2017-10-24T09:18:08.933Z,21.47
2017-10-24T09:20:37.238Z,27.40
2017-10-24T09:23:06.328Z,27.80
2017-10-24T09:25:35.398Z,32.53
2017-10-24T09:28:03.711Z,25.73
2017-10-24T09:30:32.033Z,37.43
2017-10-24T09:33:00.346Z,33.23
2017-10-24T09:35:29.418Z,31.50
2017-10-24T09:37:57.730Z,32.23
2017-10-24T09:40:26.812Z,28.40
2017-10-24T09:42:55.895Z,34.17
2017-10-24T09:45:24.198Z,25.03
2017-10-24T09:47:52.513Z,28.43
2017-10-24T09:50:20.818Z,33.10
2017-10-24T09:52:49.140Z,28.73
2017-10-24T09:55:17.451Z,37.23
2017-10-24T09:57:45.774Z,26.30
2017-10-24T10:00:14.853Z,24.53
2017-10-24T10:02:43.170Z,30.30
2017-10-24T10:05:11.482Z,27.87
2017-10-24T10:07:40.857Z,32.30
2017-10-24T10:10:09.255Z,26.47
2017-10-24T10:12:37.891Z,49.83
2017-10-24T10:15:06.965Z,37.70
2017-10-24T10:17:35.282Z,39.03
2017-10-24T10:20:03.601Z,30.67
2017-10-24T10:22:31.937Z,30.40
2017-10-24T10:25:00.245Z,36.43
2017-10-24T10:27:29.284Z,30.77
2017-10-24T10:29:58.362Z,29.30
2017-10-24T10:32:26.695Z,24.50
2017-10-24T10:34:55.006Z,27.70
2017-10-24T10:37:23.323Z,34.23
2017-10-24T10:39:52.411Z,33.00
2017-10-24T10:42:21.501Z,33.43
2017-10-24T10:44:49.805Z,31.70
2017-10-24T10:47:18.134Z,32.73
2017-10-24T10:49:46.442Z,36.07
2017-10-24T10:52:15.526Z,37.13
2017-10-24T10:54:43.846Z,30.33
2017-10-24T10:57:12.170Z,26.53
2017-10-24T10:59:40.486Z,27.60
2017-10-24T11:02:08.805Z,30.70
2017-10-24T11:04:37.785Z,28.17
2017-10-24T11:07:06.094Z,30.00
2017-10-24T11:09:34.401Z,24.73
2017-10-24T11:12:04.309Z,26.60
2017-10-24T11:14:33.410Z,28.57
2017-10-24T11:17:02.489Z,28.40
2017-10-24T11:19:30.798Z,27.93
2017-10-24T11:21:59.096Z,27.93
2017-10-24T11:24:27.509Z,25.23
2017-10-24T11:26:55.882Z,30.07
2017-10-24T11:29:24.262Z,21.13
2017-10-24T11:31:52.563Z,21.27
2017-10-24T11:34:21.642Z,25.40
2017-10-24T11:36:49.952Z,19.33
2017-10-24T11:39:18.274Z,25.93
2017-10-24T11:41:46.582Z,19.43
2017-10-24T11:44:14.934Z,18.20
2017-10-24T11:46:43.254Z,15.93
2017-10-24T11:49:12.336Z,21.50
2017-10-24T11:51:41.415Z,15.20
2017-10-24T11:54:09.743Z,20.53
2017-10-24T11:56:38.047Z,14.10
2017-10-24T11:59:06.370Z,13.20
2017-10-24T12:01:35.446Z,13.03
2017-10-24T12:04:03.762Z,11.63
2017-10-24T12:06:32.075Z,12.77
2017-10-24T12:09:00.398Z,12.93
2017-10-24T12:11:29.489Z,12.00
2017-10-24T12:13:58.565Z,10.73
2017-10-24T12:16:26.876Z,13.53
2017-10-24T12:18:55.953Z,10.27
2017-10-24T12:21:24.259Z,10.60
2017-10-24T12:23:52.570Z,12.70
2017-10-24T12:26:20.878Z,10.37
2017-10-24T12:28:49.199Z,9.37
2017-10-24T12:31:17.506Z,11.10
2017-10-24T12:33:45.815Z,9.50
2017-10-24T12:36:14.134Z,10.20
2017-10-24T12:38:43.222Z,13.90
2017-10-24T12:41:11.546Z,9.57
2017-10-24T12:43:40.534Z,10.33
2017-10-24T12:46:08.837Z,13.80
2017-10-24T12:48:37.978Z,8.93
2017-10-24T12:51:07.558Z,14.00
2017-10-24T12:53:36.639Z,10.00
2017-10-24T12:56:05.706Z,7.60
2017-10-24T12:58:36.409Z,10.50
2017-10-24T13:01:04.707Z,9.80
2017-10-24T13:03:33.056Z,7.10
2017-10-24T13:06:01.353Z,6.50
2017-10-24T13:08:29.665Z,7.67
2017-10-24T13:10:57.970Z,5.30
2017-10-24T13:13:26.283Z,5.73
2017-10-24T13:15:54.582Z,5.80
2017-10-24T13:18:22.908Z,5.57
2017-10-24T13:20:51.213Z,6.23
2017-10-24T13:23:19.578Z,6.07
2017-10-24T13:25:47.886Z,10.13
2017-10-24T13:28:16.192Z,7.63
2017-10-24T13:30:45.278Z,9.83
2017-10-24T13:33:13.597Z,9.00
2017-10-24T13:35:41.896Z,6.70
2017-10-24T13:38:10.210Z,6.70
2017-10-24T13:40:38.519Z,7.23
2017-10-24T13:43:06.830Z,8.13
2017-10-24T13:45:35.149Z,11.63
2017-10-24T13:48:03.453Z,9.60
2017-10-24T13:50:31.771Z,9.27
2017-10-24T13:53:00.074Z,10.00
2017-10-24T13:55:28.413Z,7.73
2017-10-24T13:57:56.714Z,7.23
2017-10-24T14:00:25.078Z,9.93
2017-10-24T14:02:54.147Z,15.70
2017-10-24T14:05:27.737Z,10.10
2017-10-24T14:08:01.515Z,12.60
2017-10-24T14:10:36.167Z,16.77
2017-10-24T14:13:04.477Z,19.97
2017-10-24T14:15:32.782Z,14.00
2017-10-24T14:18:01.095Z,11.47
2017-10-24T14:20:29.406Z,9.20
2017-10-24T14:22:57.718Z,9.43
2017-10-24T14:25:26.036Z,6.93
2017-10-24T14:27:54.342Z,8.23
2017-10-24T14:30:22.657Z,5.90
2017-10-24T14:32:50.963Z,7.07
2017-10-24T14:35:19.272Z,6.80
2017-10-24T14:37:47.566Z,7.70
2017-10-24T14:40:15.885Z,8.60
2017-10-24T14:42:45.007Z,10.30
2017-10-24T14:45:13.318Z,8.10
2017-10-24T14:47:41.851Z,5.90
2017-10-24T14:50:10.165Z,5.73
2017-10-24T14:52:38.555Z,4.97
2017-10-24T14:55:06.868Z,6.73
2017-10-24T14:57:35.930Z,6.97
2017-10-24T15:00:04.261Z,8.90
2017-10-24T15:02:32.558Z,5.13
2017-10-24T15:05:00.859Z,4.30
2017-10-24T15:07:29.175Z,5.33
2017-10-24T15:09:58.246Z,6.73
2017-10-24T15:12:26.558Z,5.43
2017-10-24T15:14:54.874Z,5.47
2017-10-24T15:17:23.185Z,3.90
2017-10-24T15:19:51.486Z,3.77
2017-10-24T15:22:19.829Z,3.30
2017-10-24T15:24:48.141Z,4.67
2017-10-24T15:27:16.466Z,2.70
2017-10-24T15:29:44.762Z,3.20
2017-10-24T15:32:13.074Z,3.60
2017-10-24T15:34:41.367Z,4.40
2017-10-24T15:37:09.688Z,3.90
2017-10-24T15:39:39.014Z,5.20
2017-10-24T15:42:08.127Z,5.23
2017-10-24T15:44:36.453Z,6.87
2017-10-24T15:47:04.762Z,6.17
2017-10-24T15:49:33.836Z,5.40
2017-10-24T15:52:02.145Z,5.00
2017-10-24T15:54:31.211Z,4.27
2017-10-24T15:56:59.518Z,4.33
2017-10-24T15:59:28.610Z,4.20
2017-10-24T16:01:57.690Z,4.50
2017-10-24T16:04:26.764Z,10.33
2017-10-24T16:06:55.125Z,4.60
2017-10-24T16:09:24.202Z,3.70
2017-10-24T16:11:52.517Z,3.10
2017-10-24T16:14:20.827Z,4.30
2017-10-24T16:16:50.255Z,4.90
2017-10-24T16:19:18.554Z,2.90
2017-10-24T16:21:46.868Z,2.30
2017-10-24T16:24:15.166Z,2.57
2017-10-24T16:26:44.258Z,2.50
2017-10-24T16:29:13.340Z,3.27
2017-10-24T16:31:41.656Z,2.10
2017-10-24T16:34:09.950Z,2.87
2017-10-24T16:36:38.265Z,2.50
2017-10-24T16:39:06.582Z,5.93
2017-10-24T16:41:34.898Z,2.13
2017-10-24T16:44:03.205Z,2.23
2017-10-24T16:46:32.289Z,2.70
2017-10-24T16:49:00.606Z,1.97
2017-10-24T16:51:28.909Z,3.27
2017-10-24T16:53:57.222Z,2.77
2017-10-24T16:56:25.550Z,2.53
2017-10-24T16:58:53.861Z,2.50
2017-10-24T17:01:22.173Z,2.77
2017-10-24T17:03:51.245Z,3.00
2017-10-24T17:06:19.565Z,9.87
2017-10-24T17:08:47.867Z,2.83
2017-10-24T17:11:16.182Z,3.17
2017-10-24T17:13:44.489Z,2.80
2017-10-24T17:16:12.806Z,2.90
2017-10-24T17:18:41.107Z,3.20
2017-10-24T17:21:09.425Z,3.07
2017-10-24T17:23:37.746Z,6.07
2017-10-24T17:26:06.062Z,2.93
2017-10-24T17:28:34.370Z,5.07
2017-10-24T17:31:02.690Z,4.00
2017-10-24T17:33:31.001Z,3.90
2017-10-24T17:36:00.085Z,4.13
2017-10-24T17:38:29.164Z,6.17
2017-10-24T17:40:57.481Z,4.17
2017-10-24T17:43:25.826Z,4.00
2017-10-24T17:45:54.137Z,4.43
2017-10-24T17:48:22.460Z,3.60
2017-10-24T17:50:50.782Z,4.20
2017-10-24T17:53:19.138Z,8.50
2017-10-24T17:55:48.198Z,7.13
2017-10-24T17:58:16.516Z,9.43
2017-10-24T18:00:44.845Z,12.03
2017-10-24T18:03:13.151Z,17.37
2017-10-24T18:05:41.475Z,9.43
2017-10-24T18:08:09.781Z,8.50
2017-10-24T18:10:38.091Z,7.43
2017-10-24T18:13:06.393Z,8.40
2017-10-24T18:15:35.493Z,10.30
2017-10-24T18:18:03.815Z,9.30
2017-10-24T18:20:32.115Z,9.90
2017-10-24T18:23:00.434Z,10.97
2017-10-24T18:25:28.755Z,11.73
2017-10-24T18:27:57.074Z,10.47
2017-10-24T18:30:26.146Z,13.13
2017-10-24T18:32:54.544Z,12.87
2017-10-24T18:35:23.615Z,13.60
2017-10-24T18:37:51.954Z,11.73
2017-10-24T18:40:20.263Z,13.37
2017-10-24T18:42:48.597Z,13.07
2017-10-24T18:45:16.909Z,13.43
2017-10-24T18:47:45.235Z,12.87
2017-10-24T18:50:13.842Z,10.97
2017-10-24T18:52:42.154Z,11.63
2017-10-24T18:55:10.457Z,12.70
2017-10-24T18:57:38.783Z,13.97
2017-10-24T19:00:07.095Z,17.27
2017-10-24T19:02:35.426Z,20.53
2017-10-24T19:05:03.734Z,25.17
2017-10-24T19:07:32.046Z,30.10
2017-10-24T19:10:00.350Z,28.77
2017-10-24T19:12:29.433Z,17.37
2017-10-24T19:14:57.744Z,16.97
2017-10-24T19:17:26.068Z,16.17
2017-10-24T19:19:54.390Z,15.73
2017-10-24T19:22:22.706Z,15.90
2017-10-24T19:24:51.010Z,14.23
2017-10-24T19:27:20.094Z,13.67
2017-10-24T19:29:48.402Z,13.00
2017-10-24T19:32:17.493Z,14.07
2017-10-24T19:34:46.567Z,13.57
2017-10-24T19:37:14.889Z,13.43
2017-10-24T19:39:43.194Z,13.90
2017-10-24T19:42:11.510Z,15.43
2017-10-24T19:44:40.587Z,19.20
2017-10-24T19:47:09.699Z,14.20
2017-10-24T19:49:38.786Z,14.30
2017-10-24T19:52:07.211Z,14.40
2017-10-24T19:54:35.514Z,15.07
2017-10-24T19:57:03.840Z,15.67
2017-10-24T19:59:32.156Z,15.47
2017-10-24T20:02:00.493Z,15.10
2017-10-24T20:04:29.589Z,16.03
2017-10-24T20:06:58.666Z,18.27
2017-10-24T20:09:26.986Z,15.40
2017-10-24T20:11:55.314Z,14.37
2017-10-24T20:14:23.617Z,14.13
2017-10-24T20:16:51.947Z,13.90
2017-10-24T20:19:20.318Z,13.00
2017-10-24T20:21:48.634Z,12.23
2017-10-24T20:24:16.978Z,13.43
2017-10-24T20:26:45.295Z,13.13
2017-10-24T20:29:14.411Z,12.57
2017-10-24T20:31:42.725Z,13.47
2017-10-24T20:34:11.754Z,14.87
2017-10-24T20:36:40.089Z,14.97
2017-10-24T20:39:08.394Z,15.20
2017-10-24T20:41:36.714Z,17.83
2017-10-24T20:44:05.813Z,16.60
2017-10-24T20:46:34.154Z,15.60
2017-10-24T20:49:02.483Z,14.17
2017-10-24T20:51:30.790Z,14.83
2017-10-24T20:53:59.105Z,12.17
2017-10-24T20:56:28.182Z,13.63
2017-10-24T20:58:56.517Z,14.40
2017-10-24T21:01:24.817Z,12.50
2017-10-24T21:03:53.125Z,12.50
2017-10-24T21:06:22.210Z,12.83
2017-10-24T21:08:50.533Z,12.30
2017-10-24T21:11:18.842Z,13.10
2017-10-24T21:13:47.158Z,11.10
2017-10-24T21:16:16.250Z,13.07
2017-10-24T21:18:45.330Z,16.23
2017-10-24T21:21:19.475Z,16.43
2017-10-24T21:23:48.558Z,16.40
2017-10-24T21:26:17.631Z,15.20
2017-10-24T21:28:45.959Z,16.33
2017-10-24T21:31:14.263Z,14.53
2017-10-24T21:33:42.582Z,15.00
2017-10-24T21:36:11.658Z,13.20
2017-10-24T21:38:39.990Z,14.93
2017-10-24T21:41:08.379Z,15.43
2017-10-24T21:43:36.694Z,14.90
2017-10-24T21:46:05.014Z,14.10
2017-10-24T21:48:33.342Z,13.07
2017-10-24T21:51:01.651Z,12.77
2017-10-24T21:53:30.734Z,14.57
2017-10-24T21:55:59.042Z,13.20
2017-10-24T21:58:27.357Z,13.53
2017-10-24T22:00:55.661Z,14.77
2017-10-24T22:03:23.990Z,15.17
2017-10-24T22:05:52.301Z,13.60
2017-10-24T22:08:20.610Z,14.13
2017-10-24T22:10:49.685Z,12.23
2017-10-24T22:13:18.022Z,15.37
2017-10-24T22:15:46.341Z,13.00
2017-10-24T22:18:14.663Z,14.33
2017-10-24T22:20:42.961Z,15.40
2017-10-24T22:23:11.277Z,13.30
2017-10-24T22:25:39.582Z,14.83
2017-10-24T22:28:07.979Z,14.07
2017-10-24T22:30:36.296Z,13.97
2017-10-24T22:33:04.634Z,13.97
2017-10-24T22:35:32.943Z,11.83
2017-10-24T22:38:01.267Z,9.90
2017-10-24T22:40:29.574Z,10.00
2017-10-24T22:42:57.887Z,10.30
2017-10-24T22:45:26.183Z,9.33
2017-10-24T22:47:55.258Z,8.70
2017-10-24T22:50:23.555Z,9.27
2017-10-24T22:52:51.881Z,8.93
2017-10-24T22:55:20.179Z,9.50
2017-10-24T22:57:48.490Z,12.90
2017-10-24T23:00:17.562Z,9.60
2017-10-24T23:02:45.869Z,11.10
2017-10-24T23:05:14.931Z,9.63
2017-10-24T23:07:43.250Z,10.07
2017-10-24T23:10:11.545Z,9.03
2017-10-24T23:12:39.852Z,10.27
2017-10-24T23:15:08.159Z,10.00
2017-10-24T23:17:37.244Z,9.80
2017-10-24T23:20:06.334Z,9.60
2017-10-24T23:22:37.338Z,8.43
2017-10-24T23:25:05.646Z,10.10
2017-10-24T23:27:33.954Z,8.97
2017-10-24T23:30:03.034Z,9.20
2017-10-24T23:32:31.346Z,8.80
2017-10-24T23:34:59.657Z,8.80
2017-10-24T23:37:27.968Z,14.77
2017-10-24T23:39:57.042Z,8.70
2017-10-24T23:42:25.339Z,7.50
2017-10-24T23:44:54.414Z,7.80
2017-10-24T23:47:22.752Z,7.70
2017-10-24T23:49:51.061Z,7.00
2017-10-24T23:52:19.408Z,8.07
2017-10-24T23:54:47.709Z,7.63
2017-10-24T23:57:16.034Z,9.67
2017-10-24T23:59:45.109Z,9.60
